createdAt,value
2023-02-18T00:02:22.318Z,101300.25
2023-02-18T00:04:48.736Z,101311.56
2023-02-18T00:07:15.140Z,101316.78
2023-02-18T00:09:41.747Z,101300.28
2023-02-18T00:12:08.185Z,101319.38
2023-02-18T00:14:34.710Z,101316.78
2023-02-18T00:17:01.119Z,101320.25
2023-02-18T00:19:27.607Z,101302.00
2023-02-18T00:21:54.032Z,101298.56
2023-02-18T00:24:20.489Z,101295.91
2023-02-18T00:26:49.950Z,101303.72
2023-02-18T00:29:16.582Z,101290.69
2023-02-18T00:31:43.531Z,101290.69
2023-02-18T00:34:11.328Z,101296.78
2023-02-18T00:36:37.755Z,101296.78
2023-02-18T00:39:06.584Z,101298.50
2023-02-18T00:41:33.620Z,101303.72
2023-02-18T00:44:00.404Z,101289.81
2023-02-18T00:46:27.078Z,101307.19
2023-02-18T00:48:54.061Z,101301.97
2023-02-18T00:51:21.099Z,101321.06
2023-02-18T00:53:48.262Z,101315.00
2023-02-18T00:56:15.099Z,101317.59
2023-02-18T00:58:42.582Z,101321.91
2023-02-18T01:01:09.574Z,101332.31
2023-02-18T01:03:37.018Z,101333.22
2023-02-18T01:06:04.247Z,101333.22
2023-02-18T01:08:32.791Z,101341.03
2023-02-18T01:10:59.514Z,101347.94
2023-02-18T01:13:28.836Z,101342.72
2023-02-18T01:15:56.482Z,101352.25
2023-02-18T01:18:23.193Z,101340.13
2023-02-18T01:20:49.711Z,101336.63
2023-02-18T01:23:16.531Z,101347.91
2023-02-18T01:25:43.186Z,101329.66
2023-02-18T01:28:11.279Z,101332.25
2023-02-18T01:30:37.676Z,101338.31
2023-02-18T01:33:04.425Z,101332.25
2023-02-18T01:35:30.859Z,101346.13
2023-02-18T01:37:57.237Z,101353.06
2023-02-18T01:40:25.971Z,101347.81
2023-02-18T01:42:52.886Z,101349.56
2023-02-18T01:45:34.645Z,101345.22
2023-02-18T01:48:04.010Z,101340.84
2023-02-18T01:50:33.586Z,101341.75
2023-02-18T01:53:00.280Z,101348.66
2023-02-18T01:55:27.159Z,101333.03
2023-02-18T01:57:54.151Z,101332.19
2023-02-18T02:00:23.970Z,101339.13
2023-02-18T02:02:51.699Z,101330.44
2023-02-18T02:05:19.342Z,101333.94
2023-02-18T02:07:47.417Z,101328.72
2023-02-18T02:10:15.025Z,101333.03
2023-02-18T02:13:03.044Z,101323.47
2023-02-18T02:15:38.831Z,101316.56
2023-02-18T02:18:20.572Z,101312.19
2023-02-18T02:20:46.993Z,101304.34
2023-02-18T02:23:32.083Z,101303.50
2023-02-18T02:26:37.252Z,101305.22
2023-02-18T02:29:09.426Z,101297.41
2023-02-18T02:31:35.851Z,101306.09
2023-02-18T02:34:20.996Z,101304.34
2023-02-18T02:36:54.940Z,101301.72
2023-02-18T02:39:33.627Z,101301.72
2023-02-18T02:42:15.941Z,101297.38
2023-02-18T02:44:57.048Z,101299.13
2023-02-18T02:47:44.922Z,101300.81
2023-02-18T02:50:21.466Z,101286.97
2023-02-18T02:52:50.820Z,101293.91
2023-02-18T02:55:19.794Z,101292.16
2023-02-18T02:57:51.210Z,101286.97
2023-02-18T03:00:38.961Z,101293.00
2023-02-18T03:03:16.472Z,101293.84
2023-02-18T03:05:46.207Z,101289.53
2023-02-18T03:08:12.638Z,101289.53
2023-02-18T03:10:44.302Z,101286.03
2023-02-18T03:13:13.933Z,101286.91
2023-02-18T03:16:01.606Z,101287.78
2023-02-18T03:18:40.144Z,101281.69
2023-02-18T03:21:13.685Z,101273.00
2023-02-18T03:23:46.324Z,101283.41
2023-02-18T03:26:14.344Z,101285.13
2023-02-18T03:28:41.327Z,101280.81
2023-02-18T03:31:10.861Z,101279.06
2023-02-18T03:33:40.072Z,101285.13
2023-02-18T03:36:09.310Z,101280.81
2023-02-18T03:38:43.912Z,101281.66
2023-02-18T03:41:11.606Z,101272.09
2023-02-18T03:43:40.246Z,101286.84
2023-02-18T03:46:07.670Z,101288.56
2023-02-18T03:48:34.463Z,101279.91
2023-02-18T03:51:00.912Z,101284.25
2023-02-18T03:53:27.388Z,101279.06
2023-02-18T03:55:53.819Z,101271.25
2023-02-18T03:58:20.238Z,101277.31
2023-02-18T04:00:46.715Z,101268.66
2023-02-18T04:03:13.142Z,101278.22
2023-02-18T04:05:39.652Z,101269.53
2023-02-18T04:08:06.183Z,101268.69
2023-02-18T04:10:32.663Z,101268.69
2023-02-18T04:12:59.201Z,101270.44
2023-02-18T04:15:25.843Z,101273.03
2023-02-18T04:17:52.429Z,101265.25
2023-02-18T04:20:18.997Z,101258.34
2023-02-18T04:22:45.591Z,101267.88
2023-02-18T04:25:11.973Z,101276.56
2023-02-18T04:27:38.444Z,101265.31
2023-02-18T04:30:05.451Z,101268.81
2023-02-18T04:32:32.163Z,101268.81
2023-02-18T04:34:58.645Z,101264.47
2023-02-18T04:37:25.208Z,101274.03
2023-02-18T04:39:51.717Z,101263.59
2023-02-18T04:42:18.120Z,101262.72
2023-02-18T04:44:47.017Z,101255.78
2023-02-18T04:47:13.709Z,101259.25
2023-02-18T04:49:40.168Z,101260.94
2023-02-18T04:52:06.798Z,101264.41
2023-02-18T04:54:33.261Z,101274.81
2023-02-18T04:56:59.770Z,101264.41
2023-02-18T04:59:26.296Z,101268.75
2023-02-18T05:01:52.807Z,101261.78
2023-02-18T05:04:19.391Z,101254.88
2023-02-18T05:06:45.825Z,101255.72
2023-02-18T05:09:12.235Z,101247.94
2023-02-18T05:11:38.878Z,101237.53
2023-02-18T05:14:05.512Z,101241.81
2023-02-18T05:16:32.102Z,101249.63
2023-02-18T05:18:58.519Z,101243.56
2023-02-18T05:21:24.989Z,101234.00
2023-02-18T05:23:51.528Z,101238.38
2023-02-18T05:26:18.040Z,101234.91
2023-02-18T05:28:44.698Z,101231.41
2023-02-18T05:31:11.240Z,101233.16
2023-02-18T05:33:37.696Z,101232.31
2023-02-18T05:36:04.382Z,101218.41
2023-02-18T05:38:30.769Z,101223.59
2023-02-18T05:40:57.190Z,101227.06
2023-02-18T05:43:23.745Z,101220.16
2023-02-18T05:45:50.194Z,101227.94
2023-02-18T05:48:16.590Z,101215.78
2023-02-18T05:50:43.003Z,101219.25
2023-02-18T05:53:09.562Z,101209.75
2023-02-18T05:55:39.221Z,101203.66
2023-02-18T05:58:06.245Z,101196.72
2023-02-18T06:00:32.912Z,101193.25
2023-02-18T06:02:59.465Z,101188.94
2023-02-18T06:05:25.968Z,101189.78
2023-02-18T06:07:52.383Z,101191.53
2023-02-18T06:10:21.152Z,101195.84
2023-02-18T06:12:47.593Z,101179.38
2023-02-18T06:15:16.111Z,101176.78
2023-02-18T06:17:42.493Z,101180.22
2023-02-18T06:20:09.176Z,101172.41
2023-02-18T06:22:35.593Z,101168.06
2023-02-18T06:25:02.193Z,101165.47
2023-02-18T06:27:28.681Z,101164.63
2023-02-18T06:29:55.086Z,101146.41
2023-02-18T06:32:21.713Z,101149.00
2023-02-18T06:34:48.345Z,101139.47
2023-02-18T06:37:14.841Z,101136.84
2023-02-18T06:39:41.302Z,101134.25
2023-02-18T06:42:07.863Z,101138.56
2023-02-18T06:44:35.916Z,101135.97
2023-02-18T06:47:04.085Z,101137.72
2023-02-18T06:49:30.497Z,101136.84
2023-02-18T06:51:56.976Z,101129.91
2023-02-18T06:54:24.948Z,101130.81
2023-02-18T06:56:51.597Z,101121.25
2023-02-18T06:59:20.329Z,101112.59
2023-02-18T07:01:46.783Z,101113.47
2023-02-18T07:04:13.513Z,101111.75
2023-02-18T07:06:39.974Z,101101.34
2023-02-18T07:09:06.796Z,101102.19
2023-02-18T07:11:33.374Z,101100.44
2023-02-18T07:13:59.837Z,101093.53
2023-02-18T07:16:26.311Z,101089.19
2023-02-18T07:18:52.805Z,101097.88
2023-02-18T07:21:19.256Z,101089.19
2023-02-18T07:23:45.681Z,101090.94
2023-02-18T07:26:13.238Z,101081.38
2023-02-18T07:28:40.147Z,101084.84
2023-02-18T07:31:07.459Z,101079.66
2023-02-18T07:33:36.136Z,101076.19
2023-02-18T07:36:06.237Z,101075.34
2023-02-18T07:38:33.112Z,101073.59
2023-02-18T07:40:59.625Z,101071.84
2023-02-18T07:43:26.161Z,101056.22
2023-02-18T07:45:55.188Z,101054.50
2023-02-18T07:48:21.776Z,101046.69
2023-02-18T07:50:48.226Z,101043.22
2023-02-18T07:53:18.931Z,101028.47
2023-02-18T07:55:51.207Z,101025.88
2023-02-18T07:58:22.977Z,101019.81
2023-02-18T08:00:53.684Z,101014.63
2023-02-18T08:03:24.463Z,101005.06
2023-02-18T08:05:51.676Z,101004.22
2023-02-18T08:08:24.847Z,100994.69
2023-02-18T08:10:52.147Z,100994.69
2023-02-18T08:13:18.643Z,100997.28
2023-02-18T08:15:45.563Z,100996.41
2023-02-18T08:18:20.071Z,100989.47
2023-02-18T08:20:50.384Z,100986.00
2023-02-18T08:23:17.104Z,100995.53
2023-02-18T08:25:49.301Z,100980.81
2023-02-18T08:28:17.319Z,100978.22
2023-02-18T08:30:47.314Z,100979.06
2023-02-18T08:33:13.995Z,100980.81
2023-02-18T08:35:40.639Z,100973.00
2023-02-18T08:38:07.135Z,100970.41
2023-02-18T08:40:33.793Z,100962.59
2023-02-18T08:43:00.199Z,100963.50
2023-02-18T08:45:26.670Z,100960.88
2023-02-18T08:48:18.111Z,100953.09
2023-02-18T08:50:39.768Z,100945.28
2023-02-18T08:53:06.364Z,100924.47
2023-02-18T08:55:33.825Z,100924.47
2023-02-18T08:58:00.570Z,100914.91
2023-02-18T09:00:27.292Z,100901.94
2023-02-18T09:02:53.757Z,100893.25
2023-02-18T09:05:20.328Z,100887.16
2023-02-18T09:07:46.844Z,100884.56
2023-02-18T09:10:13.285Z,100875.88
2023-02-18T09:12:39.742Z,100876.75
2023-02-18T09:15:06.562Z,100864.63
2023-02-18T09:17:33.450Z,100854.19
2023-02-18T09:19:59.928Z,100849.88
2023-02-18T09:22:26.457Z,100834.28
2023-02-18T09:24:52.927Z,100836.84
2023-02-18T09:27:19.514Z,100849.00
2023-02-18T09:29:45.931Z,100854.22
2023-02-18T09:32:15.988Z,100846.41
2023-02-18T09:34:46.577Z,100842.06
2023-02-18T09:37:14.637Z,100823.84
2023-02-18T09:39:41.285Z,100822.09
2023-02-18T09:42:11.269Z,100810.84
2023-02-18T09:44:52.361Z,100803.88
2023-02-18T09:47:26.766Z,100802.16
2023-02-18T09:49:54.983Z,100799.56
2023-02-18T09:52:25.854Z,100811.69
2023-02-18T09:54:52.284Z,100800.41
2023-02-18T09:57:21.730Z,100806.47
2023-02-18T09:59:52.029Z,100784.81
2023-02-18T10:02:20.440Z,100778.75
2023-02-18T10:04:52.088Z,100797.81
2023-02-18T10:07:23.160Z,100775.28
2023-02-18T10:09:51.825Z,100759.66
2023-02-18T10:12:24.610Z,100772.69
2023-02-18T10:14:56.255Z,100764.88
2023-02-18T10:17:26.531Z,100776.13
2023-02-18T10:19:56.016Z,100790.00
2023-02-18T10:22:25.658Z,100773.53
2023-02-18T10:24:59.594Z,100764.88
2023-02-18T10:27:27.452Z,100746.63
2023-02-18T10:29:54.687Z,100747.53
2023-02-18T10:32:29.541Z,100753.59
2023-02-18T10:35:14.922Z,100761.38
2023-02-18T10:37:41.311Z,100746.63
2023-02-18T10:40:15.921Z,100750.13
2023-02-18T10:42:54.584Z,100742.31
2023-02-18T10:45:28.531Z,100736.22
2023-02-18T10:48:13.306Z,100723.19
2023-02-18T10:50:41.578Z,100713.63
2023-02-18T10:53:18.222Z,100698.91
2023-02-18T10:55:46.544Z,100692.81
2023-02-18T10:58:31.595Z,100683.28
2023-02-18T11:01:01.228Z,100687.63
2023-02-18T11:03:39.648Z,100672.88
2023-02-18T11:06:07.436Z,100669.38
2023-02-18T11:08:41.899Z,100665.91
2023-02-18T11:11:13.529Z,100652.88
2023-02-18T11:13:40.520Z,100644.19
2023-02-18T11:16:09.415Z,100648.53
2023-02-18T11:18:43.389Z,100645.91
2023-02-18T11:21:30.178Z,100645.00
2023-02-18T11:23:57.498Z,100638.06
2023-02-18T11:26:30.535Z,100629.34
2023-02-18T11:29:00.411Z,100619.81
2023-02-18T11:31:31.657Z,100620.66
2023-02-18T11:34:00.251Z,100640.59
2023-02-18T11:36:36.201Z,100621.47
2023-02-18T11:39:12.688Z,100602.44
2023-02-18T11:41:44.015Z,100617.22
2023-02-18T11:44:28.468Z,100617.22
2023-02-18T11:47:20.088Z,100599.84
2023-02-18T11:49:59.815Z,100588.53
2023-02-18T11:52:27.743Z,100605.00
2023-02-18T11:55:03.510Z,100604.13
2023-02-18T11:57:30.473Z,100606.69
2023-02-18T11:59:57.139Z,100595.38
2023-02-18T12:02:29.544Z,100596.19
2023-02-18T12:05:02.968Z,100598.81
2023-02-18T12:07:49.753Z,100606.59
2023-02-18T12:10:36.554Z,100611.81
2023-02-18T12:13:15.359Z,100612.72
2023-02-18T12:15:50.118Z,100604.03
2023-02-18T12:18:24.370Z,100611.81
2023-02-18T12:20:53.687Z,100622.22
2023-02-18T12:23:47.902Z,100618.72
2023-02-18T12:26:29.258Z,100611.81
2023-02-18T12:29:01.859Z,100610.91
2023-02-18T12:31:47.158Z,100619.56
2023-02-18T12:34:16.746Z,100636.91
2023-02-18T12:37:03.450Z,100640.41
2023-02-18T12:39:37.129Z,100656.03
2023-02-18T12:42:18.737Z,100669.91
2023-02-18T12:44:57.389Z,100676.91
2023-02-18T12:47:23.862Z,100675.22
2023-02-18T12:49:50.848Z,100673.56
2023-02-18T12:52:26.723Z,100677.94
2023-02-18T12:54:56.192Z,100670.19
2023-02-18T12:57:33.964Z,100672.84
2023-02-18T13:00:00.408Z,100692.81
2023-02-18T13:02:35.807Z,100694.56
2023-02-18T13:05:18.677Z,100698.91
2023-02-18T13:07:50.998Z,100692.84
2023-02-18T13:10:32.916Z,100699.78
2023-02-18T13:13:02.502Z,100698.03
2023-02-18T13:15:48.397Z,100698.88
2023-02-18T13:18:18.906Z,100715.34
2023-02-18T13:20:51.324Z,100724.91
2023-02-18T13:23:22.715Z,100733.59
2023-02-18T13:25:59.495Z,100747.53
2023-02-18T13:28:33.271Z,100755.38
2023-02-18T13:31:10.062Z,100737.22
2023-02-18T13:33:55.291Z,100755.44
2023-02-18T13:36:31.697Z,100764.13
2023-02-18T13:39:06.969Z,100772.75
2023-02-18T13:41:41.285Z,100773.66
2023-02-18T13:44:16.938Z,100791.00
2023-02-18T13:46:53.598Z,100794.47
2023-02-18T13:49:27.460Z,100815.25
2023-02-18T13:51:55.556Z,100816.97
2023-02-18T13:54:26.409Z,100805.72
2023-02-18T13:56:54.987Z,100813.53
2023-02-18T13:59:24.572Z,100823.91
2023-02-18T14:01:52.128Z,100818.69
2023-02-18T14:04:37.247Z,100829.97
2023-02-18T14:07:22.612Z,100828.25
2023-02-18T14:09:49.194Z,100820.44
2023-02-18T14:12:25.082Z,100828.25
2023-02-18T14:14:52.327Z,100824.78
2023-02-18T14:17:18.750Z,100820.44
2023-02-18T14:19:54.098Z,100839.50
2023-02-18T14:22:43.741Z,100842.13
2023-02-18T14:25:11.000Z,100850.78
2023-02-18T14:27:41.236Z,100848.19
2023-02-18T14:30:34.223Z,100855.13
2023-02-18T14:33:01.404Z,100859.47
2023-02-18T14:35:44.253Z,100864.63
2023-02-18T14:38:30.767Z,100859.44
2023-02-18T14:41:06.467Z,100872.47
2023-02-18T14:43:50.585Z,100875.06
2023-02-18T14:46:28.373Z,100885.44
2023-02-18T14:48:55.933Z,100887.19
2023-02-18T14:51:23.882Z,100895.84
2023-02-18T14:53:50.606Z,100899.34
2023-02-18T14:56:18.982Z,100902.78
2023-02-18T14:58:47.310Z,100880.25
2023-02-18T15:01:21.459Z,100891.50
2023-02-18T15:03:52.511Z,100884.59
2023-02-18T15:06:39.802Z,100875.03
2023-02-18T15:09:22.693Z,100884.59
2023-02-18T15:12:00.678Z,100889.78
2023-02-18T15:14:38.682Z,100905.38
2023-02-18T15:17:06.685Z,100920.97
2023-02-18T15:19:41.611Z,100942.66
2023-02-18T15:22:15.129Z,100941.81
2023-02-18T15:24:41.700Z,100940.91
2023-02-18T15:27:19.242Z,100951.34
2023-02-18T15:29:49.300Z,100958.25
2023-02-18T15:32:18.270Z,100964.31
2023-02-18T15:34:45.400Z,100957.41
2023-02-18T15:37:14.089Z,100960.00
2023-02-18T15:39:41.535Z,100964.31
2023-02-18T15:42:19.985Z,100968.66
2023-02-18T15:44:48.689Z,100969.53
2023-02-18T15:47:17.392Z,100968.66
2023-02-18T15:49:50.240Z,100971.28
2023-02-18T15:52:16.830Z,100974.72
2023-02-18T15:54:43.498Z,100973.88
2023-02-18T15:57:13.121Z,100985.13
2023-02-18T15:59:44.432Z,100988.63
2023-02-18T16:02:10.875Z,100997.28
2023-02-18T16:04:41.197Z,100997.28
2023-02-18T16:07:20.284Z,100998.13
2023-02-18T16:09:46.721Z,100998.13
2023-02-18T16:12:28.337Z,101003.34
2023-02-18T16:14:55.815Z,101005.94
2023-02-18T16:17:23.369Z,101005.03
2023-02-18T16:20:03.815Z,101012.00
2023-02-18T16:22:31.076Z,101003.31
2023-02-18T16:24:59.030Z,101011.09
2023-02-18T16:27:30.830Z,101008.50
2023-02-18T16:29:59.885Z,101019.75
2023-02-18T16:32:27.046Z,101015.41
2023-02-18T16:34:53.651Z,101011.91
2023-02-18T16:37:38.554Z,101024.03
2023-02-18T16:40:20.025Z,101028.34
2023-02-18T16:42:46.800Z,101028.34
2023-02-18T16:45:13.712Z,101041.28
2023-02-18T16:47:40.704Z,101049.94
2023-02-18T16:50:14.017Z,101053.38
2023-02-18T16:52:40.409Z,101051.59
2023-02-18T16:55:27.167Z,101053.34
2023-02-18T16:57:54.046Z,101068.91
2023-02-18T17:00:20.752Z,101071.47
2023-02-18T17:02:49.475Z,101069.72
2023-02-18T17:05:26.476Z,101085.28
2023-02-18T17:07:53.983Z,101089.59
2023-02-18T17:10:20.881Z,101094.75
2023-02-18T17:12:47.367Z,101092.16
2023-02-18T17:15:34.817Z,101111.22
2023-02-18T17:18:01.819Z,101111.22
2023-02-18T17:20:30.892Z,101113.81
2023-02-18T17:22:58.680Z,101116.41
2023-02-18T17:25:30.694Z,101110.34
2023-02-18T17:27:57.215Z,101118.16
2023-02-18T17:30:23.873Z,101125.06
2023-02-18T17:32:50.795Z,101128.56
2023-02-18T17:35:18.703Z,101129.41
2023-02-18T17:37:45.358Z,101132.84
2023-02-18T17:40:19.691Z,101132.84
2023-02-18T17:42:46.461Z,101138.88
2023-02-18T17:45:33.423Z,101144.03
2023-02-18T17:48:00.520Z,101147.47
2023-02-18T17:50:27.866Z,101153.50
2023-02-18T17:52:55.588Z,101162.97
2023-02-18T17:55:25.294Z,101169.91
2023-02-18T17:57:52.739Z,101177.66
2023-02-18T18:00:28.026Z,101184.53
2023-02-18T18:02:54.841Z,101188.84
2023-02-18T18:05:26.209Z,101194.00
2023-02-18T18:07:53.311Z,101195.69
2023-02-18T18:10:22.081Z,101193.09
2023-02-18T18:12:49.750Z,101194.75
2023-02-18T18:15:20.173Z,101203.38
2023-02-18T18:17:46.731Z,101201.59
2023-02-18T18:20:13.594Z,101205.03
2023-02-18T18:22:40.463Z,101201.56
2023-02-18T18:25:17.697Z,101211.00
2023-02-18T18:27:44.533Z,101215.31
2023-02-18T18:30:11.387Z,101222.22
2023-02-18T18:32:38.074Z,101223.03
2023-02-18T18:35:11.996Z,101225.59
2023-02-18T18:37:38.484Z,101230.78
2023-02-18T18:40:05.177Z,101233.34
2023-02-18T18:42:31.608Z,101237.63
2023-02-18T18:44:58.147Z,101233.31
2023-02-18T18:47:24.787Z,101242.78
2023-02-18T18:49:51.323Z,101243.63
2023-02-18T18:52:18.572Z,101233.22
2023-02-18T18:54:45.274Z,101244.47
2023-02-18T18:57:11.890Z,101241.00
2023-02-18T18:59:38.400Z,101247.06
2023-02-18T19:02:05.063Z,101238.34
2023-02-18T19:04:31.677Z,101236.59
2023-02-18T19:06:58.406Z,101237.44
2023-02-18T19:09:25.099Z,101252.97
2023-02-18T19:11:51.831Z,101256.44
2023-02-18T19:14:18.331Z,101254.69
2023-02-18T19:16:45.468Z,101253.78
2023-02-18T19:19:12.413Z,101252.94
2023-02-18T19:21:40.115Z,101249.47
2023-02-18T19:24:06.670Z,101252.91
2023-02-18T19:26:33.420Z,101251.13
2023-02-18T19:28:59.986Z,101251.09
2023-02-18T19:31:26.843Z,101258.88
2023-02-18T19:33:53.437Z,101261.47
2023-02-18T19:36:20.318Z,101266.63
2023-02-18T19:38:47.019Z,101273.47
2023-02-18T19:41:14.665Z,101277.81
2023-02-18T19:43:41.899Z,101271.72
2023-02-18T19:46:13.367Z,101275.13
2023-02-18T19:48:40.475Z,101275.09
2023-02-18T19:51:08.675Z,101271.63
2023-02-18T19:53:35.706Z,101269.88
2023-02-18T19:56:02.881Z,101280.22
2023-02-18T19:58:29.559Z,101281.06
2023-02-18T20:00:56.665Z,101281.03
2023-02-18T20:03:23.382Z,101279.28
2023-02-18T20:05:50.044Z,101282.75
2023-02-18T20:08:16.543Z,101284.44
2023-02-18T20:10:43.352Z,101287.88
2023-02-18T20:13:12.134Z,101295.66
2023-02-18T20:15:40.156Z,101300.88
2023-02-18T20:18:06.710Z,101303.47
2023-02-18T20:20:33.273Z,101303.50
2023-02-18T20:22:59.922Z,101292.25
2023-02-18T20:25:28.292Z,101299.19
2023-02-18T20:28:01.172Z,101300.94
2023-02-18T20:30:28.271Z,101300.97
2023-02-18T20:32:54.872Z,101296.63
2023-02-18T20:35:21.494Z,101296.63
2023-02-18T20:37:48.288Z,101290.63
2023-02-18T20:40:14.958Z,101288.03
2023-02-18T20:42:42.107Z,101291.53
2023-02-18T20:45:09.176Z,101292.38
2023-02-18T20:47:35.687Z,101299.31
2023-02-18T20:50:02.101Z,101303.63
2023-02-18T20:52:28.649Z,101297.59
2023-02-18T20:54:55.217Z,101302.78
2023-02-18T20:57:21.672Z,101306.22
2023-02-18T20:59:48.191Z,101311.41
2023-02-18T21:02:15.232Z,101315.75
2023-02-18T21:04:41.697Z,101311.44
2023-02-18T21:07:08.192Z,101313.19
2023-02-18T21:09:34.872Z,101315.78
2023-02-18T21:12:01.292Z,101308.03
2023-02-18T21:14:27.714Z,101308.91
2023-02-18T21:16:55.469Z,101309.78
2023-02-18T21:19:21.920Z,101308.03
2023-02-18T21:21:48.534Z,101312.38
2023-02-18T21:24:15.175Z,101306.34
2023-02-18T21:26:42.686Z,101307.19
2023-02-18T21:29:09.435Z,101295.97
2023-02-18T21:31:37.419Z,101294.25
2023-02-18T21:34:04.712Z,101304.63
2023-02-18T21:36:31.759Z,101302.03
2023-02-18T21:39:01.834Z,101311.56
2023-02-18T21:41:28.939Z,101312.41
2023-02-18T21:43:55.432Z,101310.72
2023-02-18T21:46:23.663Z,101300.34
2023-02-18T21:49:02.320Z,101308.97
2023-02-18T21:51:57.094Z,101301.19
2023-02-18T21:54:28.508Z,101306.41
2023-02-18T21:56:55.968Z,101303.78
2023-02-18T21:59:23.375Z,101302.06
2023-02-18T22:01:50.179Z,101303.81
2023-02-18T22:04:16.847Z,101303.81
2023-02-18T22:06:43.555Z,101309.00
2023-02-18T22:09:10.503Z,101306.41
2023-02-18T22:11:37.004Z,101308.16
2023-02-18T22:14:03.572Z,101304.72
2023-02-18T22:16:33.224Z,101306.44
2023-02-18T22:18:59.861Z,101303.00
2023-02-18T22:21:26.870Z,101294.38
2023-02-18T22:23:53.489Z,101293.50
2023-02-18T22:26:20.427Z,101301.31
2023-02-18T22:28:57.483Z,101302.19
2023-02-18T22:31:24.865Z,101300.47
2023-02-18T22:33:52.299Z,101298.75
2023-02-18T22:36:19.659Z,101297.88
2023-02-18T22:38:46.413Z,101298.78
2023-02-18T22:41:13.962Z,101293.63
2023-02-18T22:43:40.468Z,101285.00
2023-02-18T22:46:10.118Z,101282.41
2023-02-18T22:48:37.082Z,101290.19
2023-02-18T22:51:13.490Z,101285.88
2023-02-18T22:53:40.414Z,101276.38
2023-02-18T22:56:08.452Z,101264.28
2023-02-18T22:58:35.864Z,101274.69
2023-02-18T23:01:02.624Z,101265.16
2023-02-18T23:03:29.384Z,101266.91
2023-02-18T23:05:56.009Z,101266.91
2023-02-18T23:08:22.537Z,101269.50
2023-02-18T23:10:59.145Z,101264.31
2023-02-18T23:13:25.810Z,101268.66
2023-02-18T23:15:55.918Z,101270.41
2023-02-18T23:18:22.500Z,101266.09
2023-02-18T23:21:07.847Z,101272.13
2023-02-18T23:23:38.443Z,101265.25
2023-02-18T23:26:05.569Z,101265.25
2023-02-18T23:28:47.499Z,101267.84
2023-02-18T23:31:18.374Z,101267.84
2023-02-18T23:33:45.568Z,101266.94
2023-02-18T23:36:13.658Z,101267.84
2023-02-18T23:38:40.455Z,101257.47
2023-02-18T23:41:07.471Z,101256.56
2023-02-18T23:43:34.097Z,101253.13
2023-02-18T23:46:00.588Z,101250.53
2023-02-18T23:48:27.057Z,101241.88
2023-02-18T23:51:00.262Z,101249.66
2023-02-18T23:53:27.366Z,101246.19
2023-02-18T23:56:14.186Z,101248.78
2023-02-18T23:58:41.694Z,101253.13
